createdAt,value
2019-05-02T00:00:19.376Z,10.50
2019-05-02T00:02:48.737Z,10.55
2019-05-02T00:05:18.315Z,10.52
2019-05-02T00:07:47.536Z,10.47
2019-05-02T00:10:19.968Z,10.48
2019-05-02T00:12:50.777Z,10.37
2019-05-02T00:15:20.298Z,10.32
2019-05-02T00:17:49.217Z,10.38
2019-05-02T00:20:21.196Z,10.36
2019-05-02T00:22:52.165Z,10.29
2019-05-02T00:25:19.977Z,10.38
2019-05-02T00:27:49.016Z,10.43
2019-05-02T00:30:18.536Z,10.39
2019-05-02T00:32:47.587Z,10.47
2019-05-02T00:35:16.576Z,10.47
2019-05-02T00:37:45.859Z,10.46
2019-05-02T00:40:14.976Z,10.53
2019-05-02T00:42:44.018Z,10.52
2019-05-02T00:45:14.204Z,10.59
2019-05-02T00:47:50.416Z,10.59
2019-05-02T00:50:20.061Z,10.56
2019-05-02T00:52:49.106Z,10.71
2019-05-02T00:55:18.025Z,10.86
2019-05-02T00:57:50.841Z,10.92
2019-05-02T01:00:19.663Z,10.89
2019-05-02T01:02:50.538Z,10.94
2019-05-02T01:05:19.657Z,10.90
2019-05-02T01:07:48.698Z,10.88
2019-05-02T01:10:21.239Z,10.88
2019-05-02T01:12:48.702Z,10.71
2019-05-02T01:15:17.777Z,10.56
2019-05-02T01:17:46.858Z,10.39
2019-05-02T01:20:16.057Z,10.29
2019-05-02T01:22:47.215Z,10.04
2019-05-02T01:25:17.230Z,9.87
2019-05-02T01:27:48.016Z,9.87
2019-05-02T01:30:24.696Z,9.86
2019-05-02T01:33:13.816Z,9.86
2019-05-02T01:35:56.818Z,9.82
2019-05-02T01:38:31.706Z,9.74
2019-05-02T01:41:00.927Z,9.56
2019-05-02T01:43:31.698Z,9.49
2019-05-02T01:46:00.856Z,9.51
2019-05-02T01:48:29.897Z,9.45
2019-05-02T01:50:59.099Z,9.38
2019-05-02T01:53:29.307Z,9.41
2019-05-02T01:55:59.331Z,9.29
2019-05-02T01:58:28.457Z,9.36
2019-05-02T02:00:57.497Z,9.37
2019-05-02T02:03:27.859Z,9.40
2019-05-02T02:05:56.865Z,9.43
2019-05-02T02:08:27.248Z,9.41
2019-05-02T02:10:58.279Z,9.33
2019-05-02T02:13:31.172Z,9.30
2019-05-02T02:16:00.213Z,9.47
2019-05-02T02:18:30.418Z,9.40
2019-05-02T02:21:03.737Z,9.28
2019-05-02T02:23:50.964Z,9.30
2019-05-02T02:26:24.819Z,9.18
2019-05-02T02:28:53.896Z,9.32
2019-05-02T02:31:23.343Z,9.41
2019-05-02T02:33:52.418Z,9.44
2019-05-02T02:36:32.142Z,9.61
2019-05-02T02:38:52.077Z,9.58
2019-05-02T02:41:21.035Z,9.55
2019-05-02T02:44:03.896Z,9.35
2019-05-02T02:46:39.746Z,9.24
2019-05-02T02:49:14.007Z,9.22
2019-05-02T02:51:38.646Z,9.13
2019-05-02T02:54:07.665Z,9.10
2019-05-02T02:56:40.394Z,9.07
2019-05-02T02:59:07.091Z,9.04
2019-05-02T03:01:36.058Z,8.96
2019-05-02T03:04:09.516Z,8.84
2019-05-02T03:06:38.486Z,8.75
2019-05-02T03:09:07.492Z,8.68
2019-05-02T03:11:40.454Z,8.66
2019-05-02T03:14:20.071Z,8.80
2019-05-02T03:16:49.623Z,8.69
2019-05-02T03:19:21.157Z,8.77
2019-05-02T03:22:01.037Z,8.83
2019-05-02T03:24:26.879Z,8.83
2019-05-02T03:26:58.451Z,8.99
2019-05-02T03:29:39.334Z,8.94
2019-05-02T03:32:14.292Z,8.94
2019-05-02T03:34:44.932Z,8.85
2019-05-02T03:37:03.071Z,8.70
2019-05-02T03:39:30.489Z,8.72
2019-05-02T03:42:02.739Z,8.73
2019-05-02T03:44:31.294Z,8.69
2019-05-02T03:47:02.034Z,8.73
2019-05-02T03:49:31.131Z,8.49
2019-05-02T03:52:02.605Z,8.43
2019-05-02T03:54:31.135Z,8.36
2019-05-02T03:56:59.971Z,8.43
2019-05-02T03:59:37.324Z,8.45
2019-05-02T04:02:00.109Z,8.59
2019-05-02T04:04:29.795Z,8.44
2019-05-02T04:07:01.030Z,8.54
2019-05-02T04:09:39.096Z,8.64
2019-05-02T04:12:11.604Z,8.58
2019-05-02T04:14:38.733Z,8.64
2019-05-02T04:17:09.795Z,8.70
2019-05-02T04:19:38.832Z,8.75
2019-05-02T04:22:11.342Z,8.89
2019-05-02T04:24:38.932Z,8.97
2019-05-02T04:27:07.971Z,9.05
2019-05-02T04:29:37.616Z,9.19
2019-05-02T04:32:11.568Z,9.30
2019-05-02T04:34:37.202Z,9.36
2019-05-02T04:37:06.259Z,9.45
2019-05-02T04:39:35.191Z,9.55
2019-05-02T04:42:13.196Z,9.68
2019-05-02T04:44:40.900Z,9.72
2019-05-02T04:47:13.876Z,9.91
2019-05-02T04:49:39.024Z,10.06
2019-05-02T04:52:11.318Z,10.18
2019-05-02T04:54:38.839Z,10.30
2019-05-02T04:57:08.666Z,10.40
2019-05-02T04:59:39.578Z,10.48
2019-05-02T05:02:09.267Z,10.55
2019-05-02T05:04:42.739Z,10.62
2019-05-02T05:07:09.532Z,10.77
2019-05-02T05:09:39.961Z,10.84
2019-05-02T05:12:09.512Z,11.04
2019-05-02T05:14:43.031Z,11.04
2019-05-02T05:17:08.950Z,11.14
2019-05-02T05:19:37.883Z,11.27
2019-05-02T05:22:11.711Z,11.40
2019-05-02T05:24:51.020Z,11.51
2019-05-02T05:27:22.832Z,11.56
2019-05-02T05:29:53.571Z,11.67
2019-05-02T05:32:21.150Z,11.75
2019-05-02T05:34:50.012Z,11.68
2019-05-02T05:37:18.995Z,11.70
2019-05-02T05:39:52.303Z,11.81
2019-05-02T05:42:23.459Z,11.84
2019-05-02T05:44:49.130Z,11.96
2019-05-02T05:47:21.342Z,11.99
2019-05-02T05:49:52.401Z,12.16
2019-05-02T05:52:19.352Z,12.29
2019-05-02T05:54:48.297Z,12.26
2019-05-02T05:57:20.983Z,12.33
2019-05-02T05:59:48.432Z,12.50
2019-05-02T06:02:18.342Z,12.55
2019-05-02T06:04:50.144Z,12.64
2019-05-02T06:07:20.170Z,12.73
2019-05-02T06:09:48.833Z,12.88
2019-05-02T06:12:17.691Z,12.90
2019-05-02T06:14:46.692Z,12.96
2019-05-02T06:17:15.702Z,13.04
2019-05-02T06:19:48.184Z,13.16
2019-05-02T06:22:16.537Z,13.30
2019-05-02T06:24:46.190Z,13.39
2019-05-02T06:27:16.390Z,13.38
2019-05-02T06:29:45.269Z,13.49
2019-05-02T06:32:19.096Z,13.57
2019-05-02T06:34:46.351Z,13.52
2019-05-02T06:37:15.533Z,13.74
2019-05-02T06:39:44.490Z,13.95
2019-05-02T06:42:13.350Z,13.88
2019-05-02T06:44:42.231Z,14.03
2019-05-02T06:47:11.271Z,14.05
2019-05-02T06:49:40.131Z,14.03
2019-05-02T06:52:09.026Z,14.14
2019-05-02T06:54:37.998Z,14.34
2019-05-02T06:57:06.843Z,14.18
2019-05-02T06:59:35.852Z,14.30
2019-05-02T07:02:05.074Z,14.32
2019-05-02T07:04:33.939Z,14.42
2019-05-02T07:07:02.862Z,14.29
2019-05-02T07:09:40.321Z,14.45
2019-05-02T07:12:02.411Z,14.38
2019-05-02T07:14:31.284Z,14.64
2019-05-02T07:17:20.363Z,14.71
2019-05-02T07:20:03.794Z,14.69
2019-05-02T07:22:33.223Z,14.70
2019-05-02T07:25:01.950Z,14.71
2019-05-02T07:27:33.660Z,14.77
2019-05-02T07:30:02.612Z,14.96
2019-05-02T07:32:31.595Z,14.88
2019-05-02T07:35:00.611Z,14.95
2019-05-02T07:37:29.554Z,14.75
2019-05-02T07:39:58.431Z,15.02
2019-05-02T07:42:27.469Z,15.11
2019-05-02T07:44:56.411Z,15.12
2019-05-02T07:47:25.251Z,15.27
2019-05-02T07:49:54.110Z,15.21
2019-05-02T07:52:23.030Z,15.29
2019-05-02T07:54:56.116Z,15.33
2019-05-02T07:57:25.223Z,15.30
2019-05-02T07:59:54.969Z,15.43
2019-05-02T08:02:25.018Z,15.47
2019-05-02T08:04:54.391Z,15.58
2019-05-02T08:07:25.712Z,15.55
2019-05-02T08:09:54.016Z,15.66
2019-05-02T08:12:22.889Z,15.88
2019-05-02T08:14:51.831Z,15.80
2019-05-02T08:17:20.710Z,16.07
2019-05-02T08:19:49.551Z,16.18
2019-05-02T08:22:18.611Z,16.02
2019-05-02T08:24:47.451Z,16.33
2019-05-02T08:27:23.749Z,16.33
2019-05-02T08:29:53.230Z,16.37
2019-05-02T08:32:22.071Z,16.22
2019-05-02T08:34:51.613Z,16.05
2019-05-02T08:37:21.589Z,15.97
2019-05-02T08:39:50.451Z,15.93
2019-05-02T08:42:19.424Z,16.03
2019-05-02T08:44:51.341Z,16.29
2019-05-02T08:47:19.486Z,16.38
2019-05-02T08:49:54.628Z,16.44
2019-05-02T08:52:20.228Z,16.38
2019-05-02T08:54:49.159Z,16.46
2019-05-02T08:57:18.100Z,16.36
2019-05-02T08:59:47.029Z,16.52
2019-05-02T09:02:16.010Z,16.80
2019-05-02T09:04:57.639Z,16.52
2019-05-02T09:07:15.657Z,16.63
2019-05-02T09:09:45.591Z,16.90
2019-05-02T09:12:15.272Z,16.68
2019-05-02T09:14:44.311Z,16.93
2019-05-02T09:17:16.419Z,17.20
2019-05-02T09:19:43.924Z,17.27
2019-05-02T09:22:16.668Z,17.67
2019-05-02T09:24:44.975Z,17.69
2019-05-02T09:27:14.021Z,17.50
2019-05-02T09:29:45.929Z,17.00
2019-05-02T09:32:17.101Z,17.21
2019-05-02T09:34:44.412Z,17.26
2019-05-02T09:37:13.290Z,17.40
2019-05-02T09:39:42.149Z,16.99
2019-05-02T09:42:15.041Z,17.50
2019-05-02T09:44:42.554Z,17.43
2019-05-02T09:47:13.090Z,17.63
2019-05-02T09:49:48.918Z,17.96
2019-05-02T09:52:12.612Z,17.74
2019-05-02T09:54:45.899Z,17.58
2019-05-02T09:57:12.172Z,17.36
2019-05-02T09:59:44.889Z,17.48
2019-05-02T10:02:12.580Z,17.79
2019-05-02T10:04:44.045Z,17.73
2019-05-02T10:07:15.290Z,18.23
2019-05-02T10:09:43.031Z,17.90
2019-05-02T10:12:12.343Z,17.85
2019-05-02T10:14:42.146Z,18.48
2019-05-02T10:17:12.526Z,18.19
2019-05-02T10:19:48.794Z,18.01
2019-05-02T10:22:12.666Z,17.97
2019-05-02T10:24:42.513Z,17.98
2019-05-02T10:27:12.616Z,18.41
2019-05-02T10:29:41.935Z,18.32
2019-05-02T10:32:15.077Z,18.45
2019-05-02T10:34:42.216Z,18.52
2019-05-02T10:37:12.349Z,18.72
2019-05-02T10:39:42.288Z,18.81
2019-05-02T10:42:12.487Z,18.54
2019-05-02T10:44:42.671Z,18.57
2019-05-02T10:47:12.810Z,18.36
2019-05-02T10:49:52.826Z,18.25
2019-05-02T10:52:29.482Z,18.40
2019-05-02T10:54:52.962Z,18.15
2019-05-02T10:57:22.035Z,18.76
2019-05-02T10:59:52.566Z,18.62
2019-05-02T11:02:25.968Z,18.24
2019-05-02T11:04:56.440Z,18.18
2019-05-02T11:07:26.488Z,18.26
2019-05-02T11:09:57.215Z,18.54
2019-05-02T11:12:42.014Z,18.75
2019-05-02T11:15:19.091Z,18.52
2019-05-02T11:17:48.951Z,18.56
2019-05-02T11:20:18.011Z,18.60
2019-05-02T11:22:46.890Z,19.22
2019-05-02T11:25:15.831Z,19.14
2019-05-02T11:27:44.690Z,19.50
2019-05-02T11:30:16.873Z,20.07
2019-05-02T11:32:45.711Z,19.47
2019-05-02T11:35:14.570Z,18.96
2019-05-02T11:37:43.453Z,18.79
2019-05-02T11:40:12.970Z,18.88
2019-05-02T11:42:41.879Z,19.03
2019-05-02T11:45:12.081Z,19.17
2019-05-02T11:47:42.316Z,19.57
2019-05-02T11:50:11.982Z,19.82
2019-05-02T11:52:42.427Z,19.61
2019-05-02T11:55:12.882Z,19.27
2019-05-02T11:57:42.569Z,18.91
2019-05-02T12:00:12.823Z,18.89
2019-05-02T12:02:43.495Z,18.62
2019-05-02T12:05:14.270Z,18.67
2019-05-02T12:07:43.389Z,18.84
2019-05-02T12:10:12.857Z,19.07
2019-05-02T12:12:42.999Z,19.44
2019-05-02T12:15:15.955Z,19.45
2019-05-02T12:17:44.376Z,19.53
2019-05-02T12:20:13.505Z,19.34
2019-05-02T12:22:42.576Z,19.35
2019-05-02T12:25:12.646Z,19.78
2019-05-02T12:27:42.431Z,20.05
2019-05-02T12:30:11.926Z,20.33
2019-05-02T12:32:42.704Z,21.02
2019-05-02T12:35:11.979Z,21.07
2019-05-02T12:37:42.391Z,21.03
2019-05-02T12:40:12.904Z,20.97
2019-05-02T12:42:42.025Z,20.80
2019-05-02T12:45:12.301Z,20.94
2019-05-02T12:47:42.798Z,20.66
2019-05-02T12:50:12.544Z,20.17
2019-05-02T12:52:42.960Z,20.37
2019-05-02T12:55:12.864Z,20.84
2019-05-02T12:57:42.855Z,21.08
2019-05-02T13:00:13.815Z,21.48
2019-05-02T13:02:52.416Z,20.77
2019-05-02T13:05:22.245Z,20.76
2019-05-02T13:07:55.369Z,21.24
2019-05-02T13:10:23.767Z,21.51
2019-05-02T13:12:53.244Z,21.88
2019-05-02T13:15:22.412Z,22.34
2019-05-02T13:17:52.105Z,22.87
2019-05-02T13:20:24.747Z,22.75
2019-05-02T13:23:03.300Z,23.39
2019-05-02T13:25:36.755Z,23.23
2019-05-02T13:28:02.935Z,23.84
2019-05-02T13:30:42.686Z,24.28
2019-05-02T13:33:06.217Z,24.57
2019-05-02T13:35:42.940Z,24.11
2019-05-02T13:38:12.986Z,22.39
2019-05-02T13:40:43.817Z,22.50
2019-05-02T13:43:13.140Z,21.62
2019-05-02T13:45:44.535Z,21.27
2019-05-02T13:48:13.695Z,21.00
2019-05-02T13:50:42.820Z,21.71
2019-05-02T13:53:12.230Z,22.40
2019-05-02T13:55:45.532Z,22.06
2019-05-02T13:58:14.774Z,22.81
2019-05-02T14:00:47.158Z,22.66
2019-05-02T14:03:16.271Z,23.08
2019-05-02T14:05:50.779Z,23.00
2019-05-02T14:08:27.505Z,22.91
2019-05-02T14:10:57.512Z,22.95
2019-05-02T14:13:26.464Z,22.54
2019-05-02T14:15:55.350Z,22.65
2019-05-02T14:18:29.222Z,22.83
2019-05-02T14:20:54.992Z,23.43
2019-05-02T14:23:23.894Z,23.60
2019-05-02T14:25:52.802Z,24.01
2019-05-02T14:28:22.457Z,24.14
2019-05-02T14:30:52.518Z,23.47
2019-05-02T14:33:25.950Z,23.58
2019-05-02T14:35:54.834Z,23.55
2019-05-02T14:38:23.701Z,23.50
2019-05-02T14:40:57.282Z,23.51
2019-05-02T14:43:46.861Z,23.55
2019-05-02T14:46:17.879Z,23.87
2019-05-02T14:48:46.639Z,23.96
2019-05-02T14:51:21.344Z,23.82
2019-05-02T14:53:47.259Z,23.71
2019-05-02T14:56:37.719Z,23.94
2019-05-02T14:59:09.269Z,23.96
2019-05-02T15:01:37.884Z,23.41
2019-05-02T15:04:08.394Z,23.52
2019-05-02T15:06:38.304Z,23.45
2019-05-02T15:09:09.232Z,23.46
2019-05-02T15:11:42.628Z,23.73
2019-05-02T15:14:11.351Z,23.82
2019-05-02T15:16:44.674Z,23.72
2019-05-02T15:19:12.647Z,24.11
2019-05-02T15:21:47.016Z,24.15
2019-05-02T15:24:15.233Z,23.82
2019-05-02T15:26:44.272Z,23.92
2019-05-02T15:29:19.984Z,24.23
2019-05-02T15:31:45.394Z,24.68
2019-05-02T15:34:19.090Z,24.89
2019-05-02T15:36:47.974Z,24.92
2019-05-02T15:41:48.719Z,23.82
2019-05-02T15:44:18.952Z,23.71
2019-05-02T15:46:48.372Z,23.73
2019-05-02T15:49:17.352Z,23.57
2019-05-02T15:51:49.791Z,23.59
2019-05-02T15:54:18.803Z,23.56
2019-05-02T15:57:03.000Z,22.82
2019-05-02T15:59:32.672Z,22.76
2019-05-02T16:02:06.831Z,22.68
2019-05-02T16:04:37.598Z,22.93
2019-05-02T16:07:08.350Z,22.92
2019-05-02T16:09:37.372Z,23.10
2019-05-02T16:12:06.840Z,22.61
2019-05-02T16:14:36.243Z,22.51
2019-05-02T16:17:05.413Z,22.41
2019-05-02T16:19:36.052Z,22.24
2019-05-02T16:22:08.052Z,22.02
2019-05-02T16:24:37.192Z,21.72
2019-05-02T16:27:06.173Z,21.41
2019-05-02T16:29:35.210Z,21.03
2019-05-02T16:32:08.712Z,20.71
2019-05-02T16:34:55.511Z,20.41
2019-05-02T16:37:25.371Z,20.25
2019-05-02T16:39:54.312Z,20.27
2019-05-02T16:42:23.172Z,20.21
2019-05-02T16:44:54.599Z,20.13
2019-05-02T16:47:22.771Z,19.85
2019-05-02T16:49:53.305Z,19.78
2019-05-02T16:52:22.432Z,19.88
2019-05-02T16:54:52.691Z,19.86
2019-05-02T16:57:22.512Z,19.68
2019-05-02T16:59:55.874Z,19.69
2019-05-02T17:02:23.172Z,19.36
2019-05-02T17:04:54.688Z,19.12
2019-05-02T17:07:24.411Z,18.96
2019-05-02T17:10:02.616Z,18.85
2019-05-02T17:12:31.819Z,18.69
2019-05-02T17:15:18.691Z,18.57
2019-05-02T17:17:47.737Z,18.35
2019-05-02T17:20:16.856Z,18.15
2019-05-02T17:22:50.158Z,17.82
2019-05-02T17:25:16.592Z,17.45
2019-05-02T17:27:45.470Z,17.44
2019-05-02T17:30:15.352Z,17.41
2019-05-02T17:32:44.372Z,17.32
2019-05-02T17:35:14.611Z,17.24
2019-05-02T17:37:48.584Z,17.03
2019-05-02T17:40:16.914Z,17.04
2019-05-02T17:42:45.532Z,16.91
2019-05-02T17:45:15.052Z,16.91
2019-05-02T17:47:44.141Z,17.00
2019-05-02T17:50:22.095Z,17.06
2019-05-02T17:53:03.062Z,16.90
2019-05-02T17:55:40.118Z,16.91
2019-05-02T17:58:04.651Z,16.82
2019-05-02T18:00:35.751Z,16.84
2019-05-02T18:03:05.252Z,16.75
2019-05-02T18:05:35.791Z,16.69
2019-05-02T18:08:05.988Z,16.52
2019-05-02T18:10:36.391Z,16.36
2019-05-02T18:13:06.035Z,16.28
2019-05-02T18:15:36.295Z,16.12
2019-05-02T18:18:07.840Z,15.99
2019-05-02T18:20:37.152Z,15.75
2019-05-02T18:23:07.774Z,15.54
2019-05-02T18:25:36.910Z,15.39
2019-05-02T18:28:06.053Z,15.25
2019-05-02T18:30:35.340Z,15.15
2019-05-02T18:33:07.164Z,15.09
2019-05-02T18:35:37.331Z,14.98
2019-05-02T18:38:06.752Z,15.05
2019-05-02T18:40:36.071Z,14.82
2019-05-02T18:43:05.546Z,14.80
2019-05-02T18:45:34.910Z,14.47
2019-05-02T18:48:06.655Z,14.39
2019-05-02T18:50:44.298Z,14.18
2019-05-02T18:53:10.940Z,14.03
2019-05-02T18:55:42.192Z,14.05
2019-05-02T18:58:12.870Z,14.03
2019-05-02T19:00:42.457Z,14.00
2019-05-02T19:03:16.844Z,14.00
2019-05-02T19:05:43.133Z,13.78
2019-05-02T19:08:12.534Z,13.57
2019-05-02T19:10:55.841Z,13.30
2019-05-02T19:13:12.973Z,13.19
2019-05-02T19:15:45.188Z,12.99
2019-05-02T19:18:18.080Z,13.09
2019-05-02T19:20:57.792Z,12.90
2019-05-02T19:23:26.958Z,12.62
2019-05-02T19:25:56.270Z,12.55
2019-05-02T19:28:36.808Z,12.62
2019-05-02T19:31:06.832Z,12.49
2019-05-02T19:33:37.382Z,12.33
2019-05-02T19:36:06.313Z,12.48
2019-05-02T19:38:35.632Z,12.32
2019-05-02T19:41:08.732Z,12.22
2019-05-02T19:43:40.420Z,12.05
2019-05-02T19:46:06.971Z,12.18
2019-05-02T19:48:37.990Z,11.90
2019-05-02T19:51:10.629Z,11.88
2019-05-02T19:53:38.192Z,11.86
2019-05-02T19:56:07.712Z,11.94
2019-05-02T19:58:42.595Z,11.85
2019-05-02T20:01:08.124Z,12.00
2019-05-02T20:03:37.370Z,11.80
2019-05-02T20:06:07.411Z,11.87
2019-05-02T20:08:36.711Z,11.87
2019-05-02T20:11:05.994Z,11.79
2019-05-02T20:13:35.350Z,11.75
2019-05-02T20:16:09.150Z,11.54
2019-05-02T20:18:43.801Z,11.57
2019-05-02T20:21:12.176Z,11.50
2019-05-02T20:23:43.287Z,11.21
2019-05-02T20:26:15.210Z,10.99
2019-05-02T20:28:43.470Z,10.76
2019-05-02T20:31:12.640Z,10.89
2019-05-02T20:33:43.051Z,10.97
2019-05-02T20:36:12.566Z,10.83
2019-05-02T20:38:41.931Z,10.86
2019-05-02T20:41:12.755Z,10.96
2019-05-02T20:43:44.681Z,10.87
2019-05-02T20:46:12.412Z,10.91
2019-05-02T20:48:41.932Z,10.84
2019-05-02T20:51:12.234Z,10.84
2019-05-02T20:53:42.104Z,10.79
2019-05-02T20:56:12.330Z,10.66
2019-05-02T20:58:42.083Z,10.66
2019-05-02T21:01:12.353Z,10.61
2019-05-02T21:03:42.728Z,10.54
2019-05-02T21:06:13.712Z,10.34
2019-05-02T21:08:44.434Z,10.27
2019-05-02T21:11:13.992Z,10.12
2019-05-02T21:13:42.932Z,9.94
2019-05-02T21:16:12.432Z,9.91
2019-05-02T21:18:42.271Z,9.77
2019-05-02T21:21:12.630Z,9.72
2019-05-02T21:23:47.379Z,9.76
2019-05-02T21:26:12.550Z,9.61
2019-05-02T21:28:42.834Z,9.66
2019-05-02T21:31:12.214Z,9.66
2019-05-02T21:33:42.767Z,9.70
2019-05-02T21:36:12.179Z,9.92
2019-05-02T21:38:42.767Z,9.94
2019-05-02T21:41:12.373Z,9.76
2019-05-02T21:43:42.477Z,9.77
2019-05-02T21:46:11.733Z,9.78
2019-05-02T21:48:42.034Z,9.82
2019-05-02T21:51:18.412Z,9.84
2019-05-02T21:53:56.073Z,9.79
2019-05-02T21:56:26.613Z,9.69
2019-05-02T21:59:09.131Z,9.67
2019-05-02T22:01:42.871Z,9.67
2019-05-02T22:04:13.080Z,9.82
2019-05-02T22:06:42.805Z,9.74
2019-05-02T22:09:12.481Z,9.77
2019-05-02T22:11:42.870Z,9.65
2019-05-02T22:14:13.260Z,9.51
2019-05-02T22:16:42.714Z,9.48
2019-05-02T22:19:11.667Z,9.29
2019-05-02T22:21:42.885Z,9.24
2019-05-02T22:24:13.894Z,9.50
2019-05-02T22:26:43.620Z,9.50
2019-05-02T22:29:12.610Z,9.57
2019-05-02T22:31:43.059Z,9.59
2019-05-02T22:34:12.831Z,9.55
2019-05-02T22:36:42.553Z,9.64
2019-05-02T22:39:22.552Z,9.69
2019-05-02T22:41:52.616Z,9.76
2019-05-02T22:44:21.994Z,9.75
2019-05-02T22:46:52.092Z,9.77
2019-05-02T22:49:22.525Z,9.47
2019-05-02T22:51:51.658Z,9.44
2019-05-02T22:54:29.596Z,9.39
2019-05-02T22:56:52.114Z,9.22
2019-05-02T22:59:23.640Z,9.20
2019-05-02T23:01:52.751Z,9.45
2019-05-02T23:04:23.588Z,9.45
2019-05-02T23:06:53.092Z,9.48
2019-05-02T23:09:22.192Z,9.29
2019-05-02T23:11:51.846Z,9.17
2019-05-02T23:14:22.151Z,8.93
2019-05-02T23:16:52.804Z,9.01
2019-05-02T23:19:23.042Z,9.07
2019-05-02T23:21:52.643Z,8.97
2019-05-02T23:24:35.899Z,9.01
2019-05-02T23:26:58.652Z,9.13
2019-05-02T23:29:27.573Z,9.31
2019-05-02T23:31:56.624Z,9.36
2019-05-02T23:34:25.574Z,9.52
2019-05-02T23:36:54.610Z,9.71
2019-05-02T23:39:23.461Z,9.76
2019-05-02T23:41:52.527Z,9.55
2019-05-02T23:44:22.861Z,9.54
2019-05-02T23:46:51.899Z,9.38
2019-05-02T23:49:22.031Z,9.32
2019-05-02T23:51:51.150Z,9.08
2019-05-02T23:54:21.906Z,9.04
2019-05-02T23:56:50.813Z,8.85
2019-05-02T23:59:19.792Z,8.55
